Time;durP1;ratioP1;P1;durP2;ratioP2;P2;SDS_P1;SDS_P2;PMS_P1;PMS_P2;Temp;Humidity;BMP_temperature;BMP_pressure;BME280_temperature;BME280_humidity;BME280_pressure;Samples;Min_cycle;Max_cycle;Signal;HPM_P1;HPM_P2
2024/02/12 00:01:20;;;;;;;10.50;9.90;;;7.60;99.90;;;;;;5027150;28;20192;-80
2024/02/12 00:03:46;;;;;;;10.30;9.70;;;7.60;99.90;;;;;;4996113;28;20196;-80
2024/02/12 00:06:14;;;;;;;10.10;9.60;;;7.60;99.90;;;;;;4995085;28;20654;-80
2024/02/12 00:08:43;;;;;;;10.30;9.60;;;7.60;99.90;;;;;;4998796;28;20660;-80
2024/02/12 00:11:10;;;;;;;9.70;9.20;;;7.60;99.90;;;;;;5012501;28;20220;-80
2024/02/12 00:13:38;;;;;;;10.07;9.47;;;7.70;99.90;;;;;;4994780;28;20232;-80
2024/02/12 00:16:06;;;;;;;10.00;9.50;;;7.70;99.90;;;;;;4999061;28;20216;-80
2024/02/12 00:18:33;;;;;;;9.90;9.40;;;7.70;99.90;;;;;;5012577;28;20235;-80
2024/02/12 00:21:00;;;;;;;10.43;9.70;;;7.70;99.90;;;;;;4994801;28;20205;-80
2024/02/12 00:23:26;;;;;;;10.20;9.60;;;7.70;99.90;;;;;;5001951;28;20239;-80
2024/02/12 00:25:55;;;;;;;10.63;9.90;;;7.70;99.90;;;;;;4994530;28;20936;-80
2024/02/12 00:28:22;;;;;;;10.20;9.60;;;7.70;99.90;;;;;;5013985;28;20576;-80
2024/02/12 00:30:49;;;;;;;10.30;9.70;;;7.70;99.90;;;;;;5012313;28;20690;-80
2024/02/12 00:33:16;;;;;;;10.30;9.70;;;7.80;99.90;;;;;;4991290;28;20295;-80
2024/02/12 00:35:43;;;;;;;10.00;9.50;;;7.80;99.90;;;;;;4994604;28;20200;-80
2024/02/12 00:38:11;;;;;;;10.07;9.47;;;7.80;99.90;;;;;;4994178;28;20212;-80
2024/02/12 00:40:40;;;;;;;9.80;9.30;;;7.80;99.90;;;;;;5015410;28;20222;-80
2024/02/12 00:43:08;;;;;;;10.00;9.50;;;7.80;99.90;;;;;;5015477;28;20196;-80
2024/02/12 00:45:35;;;;;;;10.10;9.50;;;7.80;99.90;;;;;;4994184;28;20214;-80
2024/02/12 00:48:04;;;;;;;10.50;9.80;;;7.80;99.90;;;;;;4993957;28;20223;-80
2024/02/12 00:50:32;;;;;;;10.27;9.77;;;7.80;99.90;;;;;;5012023;28;20196;-79
2024/02/12 00:52:59;;;;;;;10.50;9.90;;;7.70;99.90;;;;;;4994288;28;20228;-80
2024/02/12 00:55:26;;;;;;;10.60;10.00;;;7.70;99.90;;;;;;5009783;28;20621;-79
2024/02/12 00:57:53;;;;;;;10.90;10.30;;;7.60;99.90;;;;;;5011614;28;20216;-80
2024/02/12 01:00:22;;;;;;;10.53;10.00;;;7.60;99.90;;;;;;4994045;28;20208;-80
2024/02/12 01:02:49;;;;;;;10.00;9.50;;;7.60;99.90;;;;;;4994339;28;20184;-80
2024/02/12 01:05:17;;;;;;;10.60;10.00;;;7.60;99.90;;;;;;4993947;28;20201;-79
2024/02/12 01:07:44;;;;;;;10.20;9.60;;;7.60;99.90;;;;;;4993804;28;20219;-80
2024/02/12 01:10:11;;;;;;;10.30;9.70;;;7.60;99.90;;;;;;4992184;28;20205;-80
2024/02/12 01:12:39;;;;;;;10.07;9.57;;;7.60;99.90;;;;;;5011609;28;20267;-80
2024/02/12 01:15:09;;;;;;;10.00;9.50;;;7.60;99.90;;;;;;4994332;28;20196;-79
2024/02/12 01:17:37;;;;;;;10.00;9.50;;;7.50;99.90;;;;;;4998507;28;20228;-80
2024/02/12 01:20:08;;;;;;;10.40;9.90;;;7.50;99.90;;;;;;4993942;28;20362;-80
2024/02/12 01:22:35;;;;;;;10.00;9.50;;;7.50;99.90;;;;;;5011211;28;20275;-79
2024/02/12 01:25:04;;;;;;;9.93;9.43;;;7.40;99.90;;;;;;5011635;28;20262;-80
2024/02/12 01:27:31;;;;;;;11.10;10.50;;;7.40;99.90;;;;;;4993646;28;20239;-79
2024/02/12 01:29:58;;;;;;;10.60;10.00;;;7.40;99.90;;;;;;5011592;28;20200;-80
2024/02/12 01:32:26;;;;;;;10.97;10.27;;;7.40;99.90;;;;;;4993537;28;20278;-80
2024/02/12 01:34:55;;;;;;;10.73;10.13;;;7.40;99.90;;;;;;4995729;28;20635;-80
2024/02/12 01:37:22;;;;;;;10.87;10.27;;;7.30;99.90;;;;;;5015198;28;20588;-79
2024/02/12 01:39:51;;;;;;;10.70;10.10;;;7.30;99.90;;;;;;5002771;28;20204;-80
2024/02/12 01:42:17;;;;;;;10.90;10.30;;;7.20;99.90;;;;;;4997558;28;20277;-79
2024/02/12 01:44:49;;;;;;;10.80;10.20;;;7.20;99.90;;;;;;5014939;28;20267;-79
2024/02/12 01:47:18;;;;;;;10.63;10.10;;;7.30;99.90;;;;;;4995086;28;20231;-79
2024/02/12 01:49:45;;;;;;;11.10;10.50;;;7.30;99.90;;;;;;5014995;28;20207;-80
2024/02/12 01:52:13;;;;;;;10.90;10.30;;;7.30;99.90;;;;;;4997437;28;20216;-80
2024/02/12 01:54:41;;;;;;;11.00;10.40;;;7.30;99.90;;;;;;4996376;28;20232;-80
2024/02/12 01:57:09;;;;;;;11.17;10.57;;;7.20;99.90;;;;;;4997229;28;20290;-79
2024/02/12 01:59:40;;;;;;;10.80;10.20;;;7.30;99.90;;;;;;5014807;28;20281;-80
2024/02/12 02:02:07;;;;;;;10.73;10.13;;;7.20;99.90;;;;;;4993944;28;20207;-79
2024/02/12 02:04:36;;;;;;;10.93;10.23;;;7.20;99.90;;;;;;5014337;28;20242;-80
2024/02/12 02:07:06;;;;;;;10.47;9.97;;;7.10;99.90;;;;;;5015048;28;20216;-79
2024/02/12 02:09:35;;;;;;;11.10;10.40;;;7.10;99.90;;;;;;5014215;28;20193;-79
2024/02/12 02:12:03;;;;;;;11.17;10.57;;;7.20;99.90;;;;;;4997190;28;20208;-80
2024/02/12 02:14:30;;;;;;;10.80;10.20;;;7.20;99.90;;;;;;5014646;28;20250;-80
2024/02/12 02:16:57;;;;;;;10.77;10.10;;;7.30;99.90;;;;;;5021376;28;20684;-80
2024/02/12 02:19:26;;;;;;;10.70;10.10;;;7.30;99.90;;;;;;4997118;28;20219;-80
2024/02/12 02:21:53;;;;;;;10.87;10.27;;;7.40;99.90;;;;;;4997231;28;20283;-80
2024/02/12 02:24:21;;;;;;;10.93;10.30;;;7.40;99.90;;;;;;5014194;28;20208;-80
2024/02/12 02:26:48;;;;;;;10.80;10.20;;;7.40;99.90;;;;;;4996662;28;20361;-80
2024/02/12 02:29:15;;;;;;;10.83;10.20;;;7.40;99.90;;;;;;5014499;28;20302;-79
2024/02/12 02:31:41;;;;;;;10.70;10.10;;;7.40;99.90;;;;;;5014354;28;20215;-80
2024/02/12 02:34:08;;;;;;;10.47;9.87;;;7.40;99.90;;;;;;5014565;28;20217;-79
2024/02/12 02:36:36;;;;;;;10.60;9.90;;;7.40;99.90;;;;;;5001272;28;20224;-80
2024/02/12 02:39:03;;;;;;;10.70;10.10;;;7.40;99.90;;;;;;4996222;28;20669;-80
2024/02/12 02:41:32;;;;;;;10.60;10.00;;;7.30;99.90;;;;;;4993848;28;20193;-80
2024/02/12 02:43:59;;;;;;;10.40;9.90;;;7.30;99.90;;;;;;4996562;28;20197;-79
2024/02/12 02:46:27;;;;;;;10.67;10.07;;;7.30;99.90;;;;;;4995469;28;20658;-80
2024/02/12 02:48:55;;;;;;;11.10;10.50;;;7.30;99.90;;;;;;4996513;28;20287;-79
2024/02/12 02:51:27;;;;;;;10.87;10.27;;;7.30;99.90;;;;;;4989753;28;20267;-79
2024/02/12 02:53:54;;;;;;;10.57;9.97;;;7.30;99.90;;;;;;4996457;28;20211;-79
2024/02/12 02:56:22;;;;;;;10.50;10.00;;;7.30;99.90;;;;;;4996514;28;20308;-80
2024/02/12 02:58:51;;;;;;;11.07;10.40;;;7.30;99.90;;;;;;4995984;28;20228;-79
2024/02/12 03:01:19;;;;;;;10.90;10.20;;;7.20;99.90;;;;;;5013799;28;20721;-79
2024/02/12 03:03:50;;;;;;;10.90;10.20;;;7.30;99.90;;;;;;5013569;28;20647;-80
2024/02/12 03:06:17;;;;;;;10.30;9.70;;;7.20;99.90;;;;;;4996321;28;20315;-80
2024/02/12 03:08:44;;;;;;;10.30;9.70;;;7.30;99.90;;;;;;4995498;28;20204;-80
2024/02/12 03:11:11;;;;;;;10.30;9.70;;;7.30;99.90;;;;;;5013959;28;20555;-80
2024/02/12 03:13:37;;;;;;;10.40;9.80;;;7.30;99.90;;;;;;4994260;28;20229;-80
2024/02/12 03:16:06;;;;;;;10.50;10.00;;;7.30;99.90;;;;;;5017446;28;20747;-79
2024/02/12 03:18:33;;;;;;;10.60;10.00;;;7.30;99.90;;;;;;5016287;28;20606;-80
2024/02/12 03:21:00;;;;;;;10.60;10.00;;;7.20;99.90;;;;;;5013520;28;20228;-80
2024/02/12 03:23:27;;;;;;;10.30;9.70;;;7.30;99.90;;;;;;5013378;28;20263;-80
2024/02/12 03:25:54;;;;;;;10.83;10.03;;;7.30;99.90;;;;;;5012979;28;20207;-79
2024/02/12 03:28:22;;;;;;;10.63;10.03;;;7.30;99.90;;;;;;5010988;28;20662;-79
2024/02/12 03:30:48;;;;;;;10.60;10.00;;;7.30;99.90;;;;;;5014298;28;20207;-80
2024/02/12 03:33:16;;;;;;;10.73;10.10;;;7.30;99.90;;;;;;4995786;28;20220;-80
2024/02/12 03:35:43;;;;;;;10.57;9.87;;;7.20;99.90;;;;;;5012842;28;20196;-80
2024/02/12 03:38:10;;;;;;;10.70;10.10;;;7.20;99.90;;;;;;4995779;28;20204;-80
2024/02/12 03:40:37;;;;;;;10.40;9.80;;;7.20;99.90;;;;;;5013105;28;20200;-80
2024/02/12 03:43:04;;;;;;;10.70;10.00;;;7.20;99.90;;;;;;5013039;28;20250;-80
2024/02/12 03:45:31;;;;;;;10.50;9.90;;;7.10;99.90;;;;;;5013036;28;20199;-79
2024/02/12 03:48:00;;;;;;;10.80;10.10;;;7.10;99.90;;;;;;4994862;28;20655;-79
2024/02/12 04:01:27;;;;;;;10.60;10.00;;;7.10;99.90;;;;;;5014607;28;20246;-82
2024/02/12 04:03:53;;;;;;;11.07;10.37;;;7.10;99.90;;;;;;5002492;28;20197;-82
2024/02/12 04:06:34;;;;;;;10.70;10.10;;;7.10;99.90;;;;;;5017043;28;20653;-80
2024/02/12 04:09:01;;;;;;;10.50;9.90;;;7.10;99.90;;;;;;5008715;28;20197;-81
2024/02/12 04:11:28;;;;;;;10.43;9.83;;;7.20;99.90;;;;;;5010003;28;20204;-81
2024/02/12 04:13:56;;;;;;;10.50;9.97;;;7.20;99.90;;;;;;4995440;28;20252;-80
2024/02/12 04:16:23;;;;;;;10.87;10.27;;;7.20;99.90;;;;;;5000096;28;20837;-82
2024/02/12 04:19:11;;;;;;;10.87;10.27;;;7.20;99.90;;;;;;4993100;28;20197;-82
2024/02/12 04:21:42;;;;;;;11.20;10.50;;;7.20;99.90;;;;;;5012635;28;20200;-82
2024/02/12 04:24:09;;;;;;;11.33;10.73;;;7.20;99.90;;;;;;5012308;28;20247;-82
2024/02/12 04:26:37;;;;;;;11.13;10.53;;;7.20;99.90;;;;;;4993376;28;20228;-81
2024/02/12 04:29:05;;;;;;;10.63;10.03;;;7.20;99.90;;;;;;5009951;28;20204;-82
2024/02/12 04:31:35;;;;;;;10.87;10.17;;;7.20;99.90;;;;;;5010464;28;20217;-81
2024/02/12 04:34:08;;;;;;;11.30;10.60;;;7.20;99.90;;;;;;5010975;28;20223;-82
2024/02/12 04:36:40;;;;;;;10.70;10.10;;;7.20;99.90;;;;;;5013388;28;20769;-80
2024/02/12 04:39:08;;;;;;;10.67;9.97;;;7.20;99.90;;;;;;5008587;28;20289;-81
2024/02/12 04:41:39;;;;;;;11.47;10.77;;;7.20;99.90;;;;;;5018370;28;20255;-81
2024/02/12 04:44:06;;;;;;;11.10;10.50;;;7.20;99.90;;;;;;5004251;28;20200;-81
2024/02/12 04:46:34;;;;;;;11.27;10.67;;;7.20;99.90;;;;;;5012478;28;20636;-82
2024/02/12 04:49:00;;;;;;;11.30;10.63;;;7.20;99.90;;;;;;5008486;28;20200;-81
2024/02/12 04:51:27;;;;;;;11.63;11.03;;;7.20;99.90;;;;;;5013466;28;20228;-81
2024/02/12 04:53:56;;;;;;;11.40;10.80;;;7.20;99.90;;;;;;5013030;28;20227;-82
2024/02/12 04:56:22;;;;;;;11.40;10.77;;;7.20;99.90;;;;;;4991614;28;20307;-81
2024/02/12 04:58:49;;;;;;;11.63;10.93;;;7.20;99.90;;;;;;5008759;28;20632;-80
2024/02/12 05:01:16;;;;;;;12.10;11.40;;;7.20;99.90;;;;;;4994618;28;20208;-80
2024/02/12 05:03:43;;;;;;;12.00;11.30;;;7.20;99.90;;;;;;5012385;28;20247;-80
2024/02/12 05:06:15;;;;;;;11.43;10.83;;;7.20;99.90;;;;;;4996859;28;20238;-80
2024/02/12 05:08:42;;;;;;;11.50;10.80;;;7.10;99.90;;;;;;4994184;28;20298;-81
2024/02/12 05:11:10;;;;;;;11.60;10.90;;;7.10;99.90;;;;;;4999506;28;20199;-80
2024/02/12 05:13:38;;;;;;;11.97;11.17;;;7.10;99.90;;;;;;5011307;28;20293;-80
2024/02/12 05:16:08;;;;;;;11.67;10.97;;;7.00;99.90;;;;;;4999782;28;20250;-80
2024/02/12 05:24:04;;;;;;;12.43;11.53;;;6.90;99.90;;;;;;4998397;28;20257;-81
2024/02/12 05:26:32;;;;;;;12.00;11.33;;;6.90;99.90;;;;;;5015842;28;20227;-80
2024/02/12 05:28:59;;;;;;;11.50;10.90;;;6.90;99.90;;;;;;5027682;28;20196;-80
2024/02/12 05:31:26;;;;;;;11.60;11.00;;;6.80;99.90;;;;;;5016598;28;20203;-80
2024/02/12 05:33:52;;;;;;;12.17;11.47;;;6.80;99.90;;;;;;5017093;28;20219;-80
2024/02/12 05:36:20;;;;;;;11.93;11.33;;;6.70;99.90;;;;;;5016093;28;20274;-80
2024/02/12 05:38:49;;;;;;;11.97;11.27;;;6.60;99.90;;;;;;4994929;28;20211;-80
2024/02/12 05:41:16;;;;;;;12.10;11.50;;;6.60;99.90;;;;;;4991077;28;20210;-80
2024/02/12 05:43:44;;;;;;;12.27;11.57;;;6.50;99.90;;;;;;4995076;28;20203;-80
2024/02/12 05:46:12;;;;;;;12.57;11.80;;;6.50;99.90;;;;;;5008202;28;20216;-81
2024/02/12 05:48:39;;;;;;;11.97;11.17;;;6.60;99.90;;;;;;4994592;28;20209;-80
2024/02/12 05:51:09;;;;;;;12.50;11.70;;;6.60;99.90;;;;;;4997903;28;20200;-80
2024/02/12 05:53:36;;;;;;;12.30;11.70;;;6.60;99.90;;;;;;4994375;28;20227;-80
2024/02/12 05:56:03;;;;;;;13.20;12.40;;;6.60;99.90;;;;;;5014626;28;20220;-81
2024/02/12 05:58:30;;;;;;;12.50;11.80;;;6.60;99.90;;;;;;4997985;28;20200;-80
2024/02/12 06:00:58;;;;;;;12.97;12.17;;;6.60;99.90;;;;;;5015532;28;20228;-80
2024/02/12 06:03:25;;;;;;;13.27;12.57;;;6.60;99.90;;;;;;4997872;28;20204;-80
2024/02/12 06:05:52;;;;;;;13.20;12.50;;;6.70;99.90;;;;;;5016444;28;20216;-80
2024/02/12 06:08:19;;;;;;;13.00;12.30;;;6.60;99.90;;;;;;5014966;28;20235;-80
2024/02/12 06:10:46;;;;;;;12.40;11.67;;;6.70;99.90;;;;;;4994831;28;20204;-81
2024/02/12 06:13:13;;;;;;;13.17;12.47;;;6.70;99.90;;;;;;4991217;28;20749;-80
2024/02/12 06:15:40;;;;;;;13.03;12.33;;;6.70;99.90;;;;;;5018011;28;20207;-81
2024/02/12 06:18:08;;;;;;;12.90;12.27;;;6.70;99.90;;;;;;5015434;28;20211;-80
2024/02/12 06:20:35;;;;;;;13.20;12.50;;;6.70;99.90;;;;;;5015890;28;20200;-80
2024/02/12 06:23:01;;;;;;;12.93;12.23;;;6.70;99.90;;;;;;5024989;28;20208;-80
2024/02/12 06:25:29;;;;;;;13.20;12.40;;;6.70;99.90;;;;;;5003632;28;20201;-80
2024/02/12 06:27:57;;;;;;;13.70;13.00;;;6.80;99.90;;;;;;5015247;28;20605;-81
2024/02/12 06:30:24;;;;;;;13.53;12.80;;;6.70;99.90;;;;;;4997821;28;20243;-80
2024/02/12 06:32:51;;;;;;;13.10;12.40;;;6.70;99.90;;;;;;5003209;28;20207;-80
2024/02/12 06:35:19;;;;;;;12.73;12.07;;;6.70;99.90;;;;;;4997325;28;20641;-80
2024/02/12 06:37:47;;;;;;;13.30;12.60;;;6.70;99.90;;;;;;4994343;28;20631;-80
2024/02/12 06:40:14;;;;;;;13.57;12.87;;;6.70;99.90;;;;;;5011943;28;20663;-81
2024/02/12 06:42:42;;;;;;;13.50;12.80;;;6.70;99.90;;;;;;5015847;28;20207;-80
2024/02/12 06:45:09;;;;;;;13.20;12.50;;;6.70;99.90;;;;;;4997745;28;20311;-80
2024/02/12 06:47:36;;;;;;;13.63;12.73;;;6.60;99.90;;;;;;4997215;28;20228;-80
2024/02/12 06:50:05;;;;;;;13.27;12.57;;;6.60;99.90;;;;;;5000989;28;20254;-81
2024/02/12 06:52:33;;;;;;;13.57;12.83;;;6.70;99.90;;;;;;4991748;28;20204;-80
2024/02/12 06:55:00;;;;;;;13.77;12.97;;;6.60;99.90;;;;;;5016839;28;20223;-81
2024/02/12 06:57:27;;;;;;;13.37;12.67;;;6.60;99.90;;;;;;4997197;28;20224;-81
2024/02/12 06:59:54;;;;;;;13.77;12.90;;;6.70;99.90;;;;;;5013041;28;20235;-80
2024/02/12 07:02:21;;;;;;;13.33;12.63;;;6.70;99.90;;;;;;5016223;28;20200;-81
2024/02/12 07:04:48;;;;;;;13.80;13.00;;;6.70;99.90;;;;;;4999318;28;20290;-81
2024/02/12 07:07:15;;;;;;;13.70;12.90;;;6.70;99.90;;;;;;4996430;28;20223;-81
2024/02/12 07:09:43;;;;;;;13.00;12.30;;;6.70;99.90;;;;;;5014832;28;20204;-81
2024/02/12 07:12:10;;;;;;;13.23;12.50;;;6.80;99.90;;;;;;4997510;28;20619;-80
2024/02/12 07:14:37;;;;;;;12.77;12.07;;;6.80;99.90;;;;;;4997910;28;20221;-81
2024/02/12 07:17:05;;;;;;;13.30;12.60;;;6.80;99.90;;;;;;4998635;28;20224;-80
2024/02/12 07:19:32;;;;;;;12.87;12.17;;;6.80;99.90;;;;;;4998280;28;20650;-82
2024/02/12 07:21:59;;;;;;;13.53;12.83;;;6.90;99.90;;;;;;5015779;28;20670;-80
2024/02/12 07:24:27;;;;;;;13.90;13.00;;;6.90;99.90;;;;;;5014236;28;20197;-80
2024/02/12 07:26:55;;;;;;;13.43;12.73;;;6.90;99.90;;;;;;5013900;28;20227;-80
2024/02/12 07:29:22;;;;;;;13.37;12.67;;;6.90;99.90;;;;;;5001695;28;20199;-80
2024/02/12 07:31:49;;;;;;;13.47;12.67;;;7.00;99.90;;;;;;4999290;28;20228;-80
2024/02/12 07:34:15;;;;;;;13.50;12.60;;;7.00;99.90;;;;;;4996300;28;20800;-80
2024/02/12 07:36:44;;;;;;;13.57;12.87;;;7.10;99.90;;;;;;4994155;28;20630;-80
2024/02/12 07:39:11;;;;;;;13.87;13.07;;;7.10;99.90;;;;;;4994973;28;20205;-79
2024/02/12 07:41:39;;;;;;;12.77;12.07;;;7.20;99.90;;;;;;4996458;28;20201;-80
2024/02/12 07:44:10;;;;;;;13.00;12.30;;;7.30;99.90;;;;;;4996494;28;20197;-80
2024/02/12 07:46:38;;;;;;;13.40;12.50;;;7.40;99.90;;;;;;5014933;28;20266;-80
2024/02/12 07:49:05;;;;;;;12.57;11.87;;;7.50;99.90;;;;;;5012133;28;20671;-80
2024/02/12 07:51:32;;;;;;;13.30;12.50;;;7.60;99.90;;;;;;5010029;28;20185;-81
2024/02/12 07:53:59;;;;;;;13.03;12.33;;;7.70;99.90;;;;;;4998703;28;20231;-81
2024/02/12 07:56:26;;;;;;;12.90;12.10;;;7.70;99.90;;;;;;4996611;28;20243;-81
2024/02/12 07:58:54;;;;;;;12.17;11.40;;;7.70;99.90;;;;;;5000588;28;20200;-80
2024/02/12 08:01:22;;;;;;;12.20;11.40;;;7.70;99.90;;;;;;4999358;28;20653;-80
2024/02/12 08:03:50;;;;;;;12.83;12.03;;;7.70;99.90;;;;;;5016942;28;20203;-80
2024/02/12 08:06:18;;;;;;;12.07;11.37;;;7.70;99.90;;;;;;5003331;28;20243;-79
2024/02/12 08:08:45;;;;;;;12.13;11.43;;;7.80;99.90;;;;;;5001335;28;20199;-81
2024/02/12 08:11:11;;;;;;;12.13;11.43;;;7.90;99.90;;;;;;4997823;28;20204;-80
2024/02/12 08:13:38;;;;;;;12.43;11.73;;;8.00;99.90;;;;;;5003784;28;20306;-81
2024/02/12 08:16:08;;;;;;;12.77;12.00;;;8.00;99.90;;;;;;5028900;28;20212;-81
2024/02/12 08:18:37;;;;;;;12.00;11.30;;;8.10;99.90;;;;;;4993577;28;20208;-80
2024/02/12 08:21:04;;;;;;;12.90;12.00;;;8.20;99.90;;;;;;5012414;28;20249;-80
2024/02/12 08:23:30;;;;;;;13.90;13.10;;;8.30;99.90;;;;;;4995263;28;20196;-81
2024/02/12 08:25:57;;;;;;;14.47;13.47;;;8.50;99.90;;;;;;4995260;28;20238;-80
2024/02/12 08:28:24;;;;;;;13.60;12.80;;;8.80;99.90;;;;;;5012807;28;20562;-80
2024/02/12 08:30:51;;;;;;;13.30;12.50;;;9.00;99.90;;;;;;4995524;28;20287;-80
2024/02/12 08:33:18;;;;;;;13.73;12.87;;;9.20;99.90;;;;;;5013035;28;20204;-80
2024/02/12 08:35:46;;;;;;;14.43;13.57;;;9.20;99.90;;;;;;4999488;28;20205;-80
2024/02/12 08:38:13;;;;;;;13.57;12.87;;;9.30;99.90;;;;;;4994886;28;20579;-80
2024/02/12 08:40:40;;;;;;;13.30;12.60;;;9.30;99.90;;;;;;4995677;28;20201;-80
2024/02/12 08:43:07;;;;;;;12.00;11.30;;;9.20;99.90;;;;;;4995799;28;20193;-80
2024/02/12 08:45:33;;;;;;;12.20;11.40;;;9.20;99.90;;;;;;4996260;28;20242;-80
2024/02/12 08:48:01;;;;;;;11.90;11.20;;;9.10;99.90;;;;;;5013056;28;20220;-80
2024/02/12 08:50:27;;;;;;;13.23;12.20;;;9.10;99.90;;;;;;4991862;28;20207;-81
2024/02/12 08:52:56;;;;;;;12.00;11.20;;;9.10;99.90;;;;;;5005183;28;20204;-83
2024/02/12 08:55:23;;;;;;;10.40;9.70;;;9.20;99.90;;;;;;5005858;28;20217;-84
2024/02/12 08:57:50;;;;;;;9.20;8.60;;;9.20;99.90;;;;;;5002933;28;20224;-84
2024/02/12 09:00:18;;;;;;;9.20;8.60;;;9.10;99.90;;;;;;4999630;28;20272;-83
2024/02/12 09:02:45;;;;;;;9.40;8.70;;;9.10;99.90;;;;;;5017879;28;20219;-83
2024/02/12 09:05:14;;;;;;;9.10;8.50;;;9.00;99.90;;;;;;5014672;28;20280;-79
2024/02/12 09:07:42;;;;;;;9.33;8.70;;;8.90;99.90;;;;;;5012243;28;20208;-81
2024/02/12 09:10:13;;;;;;;8.80;8.20;;;8.90;99.90;;;;;;5012769;28;20234;-80
2024/02/12 09:12:40;;;;;;;8.97;8.40;;;8.80;99.90;;;;;;4996293;28;20298;-81
2024/02/12 09:15:10;;;;;;;8.90;8.40;;;8.70;99.90;;;;;;5025112;28;20302;-81
2024/02/12 09:17:37;;;;;;;8.93;8.33;;;8.60;99.90;;;;;;5013920;28;20216;-81
2024/02/12 09:20:06;;;;;;;9.20;8.50;;;8.50;99.90;;;;;;4995361;28;20254;-80
2024/02/12 09:22:34;;;;;;;9.60;9.00;;;8.50;99.90;;;;;;4995932;28;20192;-81
2024/02/12 09:25:00;;;;;;;9.17;8.57;;;8.50;99.90;;;;;;4995031;28;20199;-81
2024/02/12 09:27:30;;;;;;;9.40;8.80;;;8.60;99.90;;;;;;4994784;28;20232;-80
2024/02/12 09:29:58;;;;;;;9.53;8.80;;;8.70;99.90;;;;;;4995692;28;20203;-83
2024/02/12 09:32:24;;;;;;;9.33;8.70;;;8.70;99.90;;;;;;4995285;28;20267;-78
2024/02/12 09:34:51;;;;;;;8.50;7.93;;;8.80;99.90;;;;;;5014316;28;20213;-78
2024/02/12 09:37:21;;;;;;;9.50;8.70;;;9.00;99.90;;;;;;4998950;28;20688;-77
2024/02/12 09:39:47;;;;;;;10.53;9.87;;;9.10;99.90;;;;;;5011818;28;20554;-77
2024/02/12 09:42:17;;;;;;;9.10;8.50;;;9.20;99.90;;;;;;5012168;28;20233;-78
2024/02/12 09:44:48;;;;;;;9.97;9.30;;;9.40;99.90;;;;;;4991703;28;20664;-81
2024/02/12 09:47:17;;;;;;;10.17;9.57;;;9.50;99.90;;;;;;5016886;28;20283;-81
2024/02/12 09:49:44;;;;;;;11.20;10.40;;;9.50;99.90;;;;;;5015988;28;20246;-82
2024/02/12 09:52:13;;;;;;;11.13;10.50;;;9.50;99.90;;;;;;4992944;28;20269;-78
2024/02/12 09:54:40;;;;;;;8.40;7.83;;;9.60;99.90;;;;;;5020408;28;20289;-79
2024/02/12 09:57:08;;;;;;;10.57;9.60;;;9.60;99.90;;;;;;5016371;28;20700;-77
2024/02/12 09:59:35;;;;;;;12.53;11.63;;;9.60;99.90;;;;;;4998212;28;20201;-78
2024/02/12 10:02:05;;;;;;;14.40;13.23;;;9.70;99.90;;;;;;5019026;28;20198;-78
2024/02/12 10:04:34;;;;;;;13.60;12.90;;;9.80;99.90;;;;;;4999253;28;20217;-78
2024/02/12 10:07:02;;;;;;;12.97;12.17;;;9.90;99.90;;;;;;5016650;28;20231;-78
2024/02/12 10:09:29;;;;;;;12.97;12.27;;;10.00;99.90;;;;;;5021461;28;20226;-78
2024/02/12 10:11:56;;;;;;;12.07;11.37;;;10.10;99.90;;;;;;5016591;28;20747;-78
2024/02/12 10:14:30;;;;;;;11.50;10.90;;;10.20;99.90;;;;;;5016718;28;20564;-78
2024/02/12 10:17:00;;;;;;;12.13;11.53;;;10.20;99.90;;;;;;5009609;28;20284;-78
2024/02/12 10:19:28;;;;;;;12.50;11.80;;;10.20;99.90;;;;;;4998090;28;20257;-78
2024/02/12 10:21:58;;;;;;;11.60;10.90;;;10.20;99.90;;;;;;4998561;28;20202;-78
2024/02/12 10:24:25;;;;;;;11.90;11.20;;;10.10;99.90;;;;;;5017329;28;20677;-78
2024/02/12 10:26:52;;;;;;;12.50;11.80;;;10.10;99.90;;;;;;5028222;28;20221;-78
2024/02/12 10:29:19;;;;;;;12.43;11.80;;;10.10;99.90;;;;;;5011242;28;20240;-79
2024/02/12 10:31:46;;;;;;;12.30;11.60;;;10.10;99.90;;;;;;5002686;28;20221;-79
2024/02/12 10:34:16;;;;;;;11.38;10.68;;;10.10;99.90;;;;;;4998894;28;20447;-79
2024/02/12 10:36:47;;;;;;;3.30;3.00;;;10.30;99.90;;;;;;5010533;28;20235;-79
2024/02/12 10:39:16;;;;;;;3.00;2.80;;;10.60;99.90;;;;;;5028823;28;20196;-79
2024/02/12 10:41:50;;;;;;;3.23;3.03;;;10.80;99.90;;;;;;4998719;28;20222;-84
2024/02/12 10:44:18;;;;;;;2.87;2.77;;;10.90;99.90;;;;;;4995329;28;20303;-82
2024/02/12 10:46:46;;;;;;;3.00;2.80;;;10.90;99.90;;;;;;5016440;28;20258;-82
2024/02/12 10:49:14;;;;;;;3.37;3.17;;;10.80;99.90;;;;;;5013745;28;20231;-82
2024/02/12 10:51:41;;;;;;;3.27;3.03;;;10.70;99.90;;;;;;4996956;28;20226;-83
2024/02/12 10:54:10;;;;;;;3.93;3.10;;;10.70;99.90;;;;;;4993435;28;20227;-82
2024/02/12 10:56:37;;;;;;;3.50;3.20;;;10.70;99.90;;;;;;5008532;28;20292;-82
2024/02/12 10:59:05;;;;;;;3.00;2.83;;;10.70;99.90;;;;;;4999038;28;20203;-80
2024/02/12 11:01:32;;;;;;;3.30;3.10;;;10.80;99.90;;;;;;4995226;28;20332;-80
2024/02/12 11:04:01;;;;;;;2.80;2.60;;;10.80;99.90;;;;;;4995331;28;20568;-80
2024/02/12 11:06:28;;;;;;;2.67;2.50;;;10.90;99.90;;;;;;4994278;28;20260;-80
2024/02/12 11:08:56;;;;;;;2.70;2.60;;;11.00;99.90;;;;;;5017770;28;20250;-82
2024/02/12 11:11:29;;;;;;;2.97;2.70;;;11.20;99.90;;;;;;4996397;28;20576;-81
2024/02/12 11:14:01;;;;;;;3.17;2.90;;;11.20;99.90;;;;;;4995989;28;20636;-79
2024/02/12 11:16:30;;;;;;;3.03;2.83;;;11.20;99.90;;;;;;5019030;28;20224;-80
2024/02/12 11:18:58;;;;;;;3.37;3.07;;;11.20;99.90;;;;;;4995947;28;20286;-81
2024/02/12 11:21:28;;;;;;;3.05;2.85;;;11.30;99.90;;;;;;5014434;28;20530;-78
2024/02/12 11:24:06;;;;;;;3.30;3.00;;;11.40;99.90;;;;;;5005882;28;20203;-79
2024/02/12 11:26:38;;;;;;;11.60;11.00;;;11.50;99.90;;;;;;5014521;28;20241;-78
2024/02/12 11:29:06;;;;;;;10.37;9.77;;;11.60;99.90;;;;;;5000352;28;20210;-79
2024/02/12 11:31:35;;;;;;;4.23;4.03;;;11.80;99.90;;;;;;5013634;28;20809;-79
2024/02/12 11:34:02;;;;;;;3.60;3.40;;;11.90;99.90;;;;;;4999910;28;20206;-79
2024/02/12 11:36:29;;;;;;;11.10;10.40;;;11.90;99.90;;;;;;5005118;28;20274;-80
2024/02/12 11:38:58;;;;;;;11.30;10.70;;;11.90;99.90;;;;;;4995285;28;20576;-78
2024/02/12 11:41:25;;;;;;;11.20;10.60;;;11.90;99.90;;;;;;5012827;28;20291;-78
2024/02/12 11:43:53;;;;;;;12.30;11.60;;;12.00;99.90;;;;;;5012779;28;20220;-78
2024/02/12 11:46:20;;;;;;;7.93;7.53;;;12.10;99.90;;;;;;4993005;28;20225;-79
2024/02/12 11:48:47;;;;;;;3.00;2.80;;;12.10;99.90;;;;;;4995116;28;20733;-79
2024/02/12 11:51:19;;;;;;;2.97;2.70;;;12.00;99.90;;;;;;4995204;28;20207;-78
2024/02/12 11:53:46;;;;;;;3.90;3.00;;;12.00;99.90;;;;;;5004183;28;20220;-78
2024/02/12 11:56:13;;;;;;;3.10;2.90;;;11.90;99.90;;;;;;5012446;28;20679;-78
2024/02/12 11:58:40;;;;;;;2.80;2.70;;;11.80;99.90;;;;;;4994887;28;20210;-79
2024/02/12 12:01:08;;;;;;;3.10;2.90;;;11.80;99.90;;;;;;4995071;28;20255;-79
2024/02/12 12:03:37;;;;;;;3.20;3.00;;;11.80;99.90;;;;;;5012517;28;20197;-78
2024/02/12 12:06:04;;;;;;;3.47;3.10;;;11.90;99.90;;;;;;4998765;28;20223;-80
2024/02/12 12:08:32;;;;;;;3.23;3.03;;;11.90;99.90;;;;;;5014429;28;20242;-81
2024/02/12 12:11:04;;;;;;;2.83;2.73;;;11.90;99.90;;;;;;5025805;28;20663;-81
2024/02/12 12:13:31;;;;;;;2.93;2.77;;;11.90;99.90;;;;;;5012531;28;20263;-79
2024/02/12 12:15:58;;;;;;;3.13;2.93;;;11.80;99.90;;;;;;5020556;28;20223;-79
2024/02/12 12:18:26;;;;;;;5.07;4.60;;;11.80;99.90;;;;;;4993719;28;20232;-79
2024/02/12 12:20:54;;;;;;;7.13;6.73;;;11.70;99.90;;;;;;4999784;28;20196;-79
2024/02/12 12:23:21;;;;;;;6.73;6.33;;;11.60;99.90;;;;;;5014740;28;20204;-79
2024/02/12 12:25:52;;;;;;;12.83;12.00;;;11.70;99.90;;;;;;5012331;28;20193;-79
2024/02/12 12:28:19;;;;;;;12.50;11.80;;;11.60;99.90;;;;;;5013883;28;20227;-80
2024/02/12 12:30:46;;;;;;;12.33;11.67;;;11.60;99.90;;;;;;4991702;28;20673;-79
2024/02/12 12:33:13;;;;;;;11.90;11.20;;;11.50;99.90;;;;;;4990339;28;20193;-79
2024/02/12 12:35:42;;;;;;;12.30;11.60;;;11.40;99.90;;;;;;4998529;28;20224;-79
2024/02/12 12:38:10;;;;;;;11.90;11.30;;;11.30;99.90;;;;;;5000458;28;20200;-79
2024/02/12 12:40:37;;;;;;;11.97;11.30;;;11.40;99.90;;;;;;4994436;28;20299;-79
2024/02/12 12:43:07;;;;;;;12.30;11.50;;;11.40;99.90;;;;;;4991139;28;20234;-79
2024/02/12 12:45:35;;;;;;;12.37;11.50;;;11.30;99.90;;;;;;5010188;28;20196;-79
2024/02/12 12:48:03;;;;;;;5.63;5.23;;;11.20;99.90;;;;;;4994277;28;20624;-79
2024/02/12 12:50:30;;;;;;;11.73;11.03;;;11.10;99.90;;;;;;4994152;28;20638;-79
2024/02/12 12:52:58;;;;;;;7.03;6.63;;;11.10;99.90;;;;;;5011592;28;20195;-79
2024/02/12 12:55:25;;;;;;;6.23;5.83;;;11.20;99.90;;;;;;5011636;28;20702;-79
2024/02/12 12:57:53;;;;;;;8.87;8.37;;;11.20;99.90;;;;;;4995339;28;20660;-82
2024/02/12 13:00:26;;;;;;;3.70;3.50;;;11.40;99.90;;;;;;5016683;28;20227;-83